Time;durP1;ratioP1;P1;durP2;ratioP2;P2;SDS_P1;SDS_P2;PMS_P1;PMS_P2;Temp;Humidity;BMP_temperature;BMP_pressure;BME280_temperature;BME280_humidity;BME280_pressure;Samples;Min_cycle;Max_cycle;Signal;HPM_P1;HPM_P2
2022/03/17 00:00:08;;;;;;;8.32;7.53;;;;;;;;;;5052923;28;20208;-81
2022/03/17 00:02:36;;;;;;;9.55;8.55;;;;;;;;;;5052800;28;20673;-81
2022/03/17 00:05:05;;;;;;;10.93;9.82;;;;;;;;;;5037852;28;20265;-82
2022/03/17 00:07:32;;;;;;;8.70;7.72;;;;;;;;;;5033199;28;20226;-82
2022/03/17 00:09:59;;;;;;;8.18;7.38;;;;;;;;;;5032961;28;20222;-81
2022/03/17 00:12:27;;;;;;;10.57;8.23;;;;;;;;;;5033772;28;20198;-82
2022/03/17 00:14:56;;;;;;;10.68;9.00;;;;;;;;;;5033970;28;20213;-82
2022/03/17 00:17:25;;;;;;;10.02;9.02;;;;;;;;;;5032772;28;20741;-81
2022/03/17 00:19:52;;;;;;;10.85;9.02;;;;;;;;;;5032440;28;20214;-82
2022/03/17 00:22:19;;;;;;;10.85;9.32;;;;;;;;;;5032883;28;20264;-81
2022/03/17 00:24:47;;;;;;;10.30;8.35;;;;;;;;;;5032615;28;20210;-83
2022/03/17 00:27:14;;;;;;;11.65;9.90;;;;;;;;;;5032727;28;20203;-82
2022/03/17 00:29:42;;;;;;;13.35;10.32;;;;;;;;;;5032931;28;20280;-82
2022/03/17 00:32:10;;;;;;;10.48;9.32;;;;;;;;;;5032858;28;20202;-82
2022/03/17 00:35:35;;;;;;;10.35;9.18;;;;;;;;;;5043604;28;20256;-81
2022/03/17 00:37:27;;;;;;;10.82;9.07;;;;;;;;;;5052220;28;20221;-83
2022/03/17 00:39:55;;;;;;;8.10;7.28;;;;;;;;;;5052631;28;20209;-82
2022/03/17 00:42:22;;;;;;;9.30;8.38;;;;;;;;;;5051744;28;20201;-82
2022/03/17 00:44:50;;;;;;;10.57;9.13;;;;;;;;;;5052370;28;20201;-81
2022/03/17 00:47:18;;;;;;;10.85;9.75;;;;;;;;;;5052034;28;20236;-83
2022/03/17 00:49:46;;;;;;;9.35;8.20;;;;;;;;;;5052287;28;20709;-82
2022/03/17 00:52:16;;;;;;;12.23;9.10;;;;;;;;;;5051638;28;20205;-82
2022/03/17 00:54:44;;;;;;;11.85;10.73;;;;;;;;;;5052724;28;20208;-82
2022/03/17 00:57:12;;;;;;;12.65;9.15;;;;;;;;;;5052528;28;20202;-81
2022/03/17 00:59:41;;;;;;;10.32;9.23;;;;;;;;;;5056179;28;20560;-83
2022/03/17 01:02:09;;;;;;;10.80;9.57;;;;;;;;;;5055871;28;20240;-83
2022/03/17 01:04:36;;;;;;;11.45;9.02;;;;;;;;;;5056386;28;20296;-82
2022/03/17 01:07:05;;;;;;;9.98;8.55;;;;;;;;;;5055456;28;20618;-83
2022/03/17 01:09:33;;;;;;;9.30;8.38;;;;;;;;;;5055684;28;20224;-82
2022/03/17 01:12:00;;;;;;;8.95;8.02;;;;;;;;;;5055243;28;20251;-81
2022/03/17 01:14:28;;;;;;;9.60;8.60;;;;;;;;;;5055152;28;20593;-82
2022/03/17 01:16:56;;;;;;;9.75;8.75;;;;;;;;;;5055654;28;20193;-81
2022/03/17 01:19:24;;;;;;;9.20;8.30;;;;;;;;;;5055817;28;20230;-82
2022/03/17 01:21:52;;;;;;;8.68;7.88;;;;;;;;;;5054857;28;20205;-82
2022/03/17 01:24:21;;;;;;;11.75;9.07;;;;;;;;;;5055873;28;20673;-82
2022/03/17 01:26:48;;;;;;;9.20;8.32;;;;;;;;;;5055092;28;20212;-83
2022/03/17 01:29:17;;;;;;;9.35;8.38;;;;;;;;;;5055129;28;20218;-81
2022/03/17 01:31:45;;;;;;;10.13;9.02;;;;;;;;;;5055089;28;20221;-81
2022/03/17 01:34:12;;;;;;;9.77;7.88;;;;;;;;;;5055109;28;20206;-82
2022/03/17 01:36:39;;;;;;;9.88;8.85;;;;;;;;;;5054387;28;20243;-82
2022/03/17 01:39:07;;;;;;;9.88;8.48;;;;;;;;;;5055477;28;20222;-82
2022/03/17 01:41:35;;;;;;;11.07;9.10;;;;;;;;;;5054741;28;20202;-83
2022/03/17 01:44:03;;;;;;;9.52;8.57;;;;;;;;;;5054690;28;20744;-81
2022/03/17 01:47:26;;;;;;;10.40;9.30;;;;;;;;;;5055114;28;20198;-81
2022/03/17 01:49:17;;;;;;;9.85;8.85;;;;;;;;;;5054818;28;20275;-83
2022/03/17 01:51:48;;;;;;;10.32;8.73;;;;;;;;;;5054660;28;20225;-81
2022/03/17 01:54:16;;;;;;;11.88;10.55;;;;;;;;;;5055707;28;20197;-81
2022/03/17 01:56:45;;;;;;;10.75;9.65;;;;;;;;;;5054525;28;20670;-81
2022/03/17 01:59:12;;;;;;;13.95;11.20;;;;;;;;;;5066767;28;20249;-81
2022/03/17 02:01:40;;;;;;;14.55;10.27;;;;;;;;;;5066508;28;20206;-82
2022/03/17 02:04:07;;;;;;;10.05;9.05;;;;;;;;;;5067298;28;20209;-81
2022/03/17 02:06:37;;;;;;;11.40;9.43;;;;;;;;;;5067246;28;20213;-80
2022/03/17 02:09:04;;;;;;;8.90;8.00;;;;;;;;;;5068436;28;20248;-81
2022/03/17 02:14:22;;;;;;;9.18;8.35;;;;;;;;;;5059657;28;20208;-82
2022/03/17 02:16:50;;;;;;;9.00;7.20;;;;;;;;;;5056239;28;20213;-83
2022/03/17 02:19:18;;;;;;;9.80;8.68;;;;;;;;;;5056365;28;20763;-82
2022/03/17 02:21:45;;;;;;;10.05;7.88;;;;;;;;;;5055698;28;20924;-82
2022/03/17 02:27:00;;;;;;;11.82;10.48;;;;;;;;;;5055156;28;20209;-81
2022/03/17 02:29:27;;;;;;;12.73;10.20;;;;;;;;;;5054710;28;20283;-82
2022/03/17 02:31:55;;;;;;;8.98;8.18;;;;;;;;;;5054385;28;20225;-82
2022/03/17 02:34:22;;;;;;;10.30;9.30;;;;;;;;;;5063907;28;20210;-82
2022/03/17 02:36:53;;;;;;;11.85;9.45;;;;;;;;;;5065986;28;20209;-81
2022/03/17 02:39:22;;;;;;;9.45;8.55;;;;;;;;;;5068395;28;20222;-81
2022/03/17 02:41:49;;;;;;;14.73;9.23;;;;;;;;;;5067350;28;20206;-81
2022/03/17 02:44:17;;;;;;;10.38;9.38;;;;;;;;;;5063227;28;20263;-81
2022/03/17 02:46:44;;;;;;;9.40;8.50;;;;;;;;;;5055507;28;20205;-82
2022/03/17 02:49:15;;;;;;;10.77;9.60;;;;;;;;;;5054916;28;20226;-81
2022/03/17 02:51:43;;;;;;;10.13;9.13;;;;;;;;;;5054470;28;20218;-82
2022/03/17 02:54:10;;;;;;;11.75;10.50;;;;;;;;;;5054020;28;20201;-80
2022/03/17 02:56:39;;;;;;;10.98;9.10;;;;;;;;;;5053854;28;20217;-81
2022/03/17 02:59:06;;;;;;;11.70;10.50;;;;;;;;;;5053996;28;20225;-80
2022/03/17 03:01:33;;;;;;;12.25;11.00;;;;;;;;;;5054281;28;20202;-81
2022/03/17 03:04:00;;;;;;;11.43;10.20;;;;;;;;;;5054338;28;20267;-81
2022/03/17 03:06:28;;;;;;;12.95;11.55;;;;;;;;;;5053720;28;20205;-81
2022/03/17 03:08:55;;;;;;;12.35;11.07;;;;;;;;;;5053443;28;20221;-81
2022/03/17 03:11:22;;;;;;;14.07;11.43;;;;;;;;;;5053311;28;20300;-81
2022/03/17 03:13:51;;;;;;;12.75;11.45;;;;;;;;;;5053501;28;20661;-80
2022/03/17 03:16:18;;;;;;;13.25;11.88;;;;;;;;;;5053528;28;20202;-81
2022/03/17 03:18:45;;;;;;;12.07;10.75;;;;;;;;;;5053310;28;20257;-81
2022/03/17 03:21:12;;;;;;;11.00;9.93;;;;;;;;;;5053159;28;20225;-80
2022/03/17 03:23:40;;;;;;;13.27;11.88;;;;;;;;;;5053420;28;20228;-80
2022/03/17 03:26:07;;;;;;;16.05;11.15;;;;;;;;;;5053753;28;20204;-81
2022/03/17 03:28:34;;;;;;;12.57;11.30;;;;;;;;;;5053610;28;20233;-80
2022/03/17 03:31:03;;;;;;;12.90;11.60;;;;;;;;;;5053451;28;20221;-81
2022/03/17 03:33:30;;;;;;;14.50;12.95;;;;;;;;;;5053351;28;20627;-80
2022/03/17 03:38:42;;;;;;;14.32;12.82;;;;;;;;;;5053491;28;20755;-80
2022/03/17 03:41:09;;;;;;;13.70;12.25;;;;;;;;;;5053761;28;20244;-80
2022/03/17 03:43:37;;;;;;;12.20;10.90;;;;;;;;;;5053422;28;20201;-80
2022/03/17 03:46:05;;;;;;;13.95;12.45;;;;;;;;;;5053383;28;20205;-80
2022/03/17 03:48:33;;;;;;;16.23;13.15;;;;;;;;;;5052645;28;20221;-79
2022/03/17 03:51:01;;;;;;;14.52;12.57;;;;;;;;;;5053421;28;20205;-80
2022/03/17 03:54:12;;;;;;;14.20;12.23;;;;;;;;;;5053641;28;20208;-80
2022/03/17 03:56:16;;;;;;;13.75;12.45;;;;;;;;;;5053065;28;20251;-81
2022/03/17 03:58:43;;;;;;;16.08;14.02;;;;;;;;;;5052537;28;20221;-81
2022/03/17 04:01:12;;;;;;;13.95;12.40;;;;;;;;;;5052484;28;20201;-81
2022/03/17 04:03:42;;;;;;;14.35;12.18;;;;;;;;;;5052677;28;20205;-80
2022/03/17 04:06:09;;;;;;;14.13;12.65;;;;;;;;;;5053450;28;20624;-81
2022/03/17 04:08:36;;;;;;;14.90;13.35;;;;;;;;;;5053160;28;20222;-80
2022/03/17 04:11:04;;;;;;;14.90;13.38;;;;;;;;;;5053022;28;20201;-80
2022/03/17 04:13:31;;;;;;;15.15;13.60;;;;;;;;;;5052960;28;20213;-81
2022/03/17 04:15:58;;;;;;;15.70;14.05;;;;;;;;;;5053125;28;20206;-80
2022/03/17 04:18:27;;;;;;;15.20;13.65;;;;;;;;;;5052438;28;20849;-79
2022/03/17 04:20:54;;;;;;;13.00;11.73;;;;;;;;;;5053071;28;20205;-81
2022/03/17 04:23:22;;;;;;;13.82;12.43;;;;;;;;;;5052513;28;20572;-80
2022/03/17 04:25:49;;;;;;;16.38;13.93;;;;;;;;;;5052779;28;20579;-80
2022/03/17 04:28:17;;;;;;;13.48;12.10;;;;;;;;;;5053027;28;20222;-80
2022/03/17 04:30:45;;;;;;;14.85;13.27;;;;;;;;;;5052600;28;20206;-80
2022/03/17 04:33:13;;;;;;;13.88;12.55;;;;;;;;;;5054471;28;20477;-80
2022/03/17 04:35:41;;;;;;;15.23;13.07;;;;;;;;;;5055645;28;20215;-81
2022/03/17 04:38:09;;;;;;;14.88;13.23;;;;;;;;;;5056085;28;20279;-82
2022/03/17 04:40:36;;;;;;;14.48;13.00;;;;;;;;;;5056757;28;20208;-81
2022/03/17 04:43:04;;;;;;;16.55;12.45;;;;;;;;;;5056416;28;20251;-80
2022/03/17 04:45:31;;;;;;;13.18;11.77;;;;;;;;;;5056401;28;20201;-81
2022/03/17 04:47:58;;;;;;;14.90;13.02;;;;;;;;;;5056738;28;20221;-80
2022/03/17 04:50:25;;;;;;;14.27;12.77;;;;;;;;;;5056733;28;20206;-81
2022/03/17 04:55:39;;;;;;;14.40;12.98;;;;;;;;;;5056515;28;20259;-80
2022/03/17 04:58:06;;;;;;;14.35;12.95;;;;;;;;;;5055867;28;20217;-81
2022/03/17 05:00:34;;;;;;;16.58;13.07;;;;;;;;;;5055756;28;20293;-81
2022/03/17 05:03:01;;;;;;;15.40;13.80;;;;;;;;;;5055909;28;20201;-81
2022/03/17 05:05:29;;;;;;;13.10;11.80;;;;;;;;;;5055601;28;20209;-80
2022/03/17 05:07:57;;;;;;;13.95;12.65;;;;;;;;;;5056302;28;20221;-80
2022/03/17 05:10:24;;;;;;;13.77;12.32;;;;;;;;;;5055139;28;20201;-80
2022/03/17 05:12:52;;;;;;;13.05;11.75;;;;;;;;;;5055715;28;20316;-80
2022/03/17 05:15:20;;;;;;;13.65;12.25;;;;;;;;;;5055555;28;20247;-81
2022/03/17 05:17:47;;;;;;;10.60;9.50;;;;;;;;;;5055725;28;20228;-80
2022/03/17 05:20:15;;;;;;;13.52;12.13;;;;;;;;;;5054989;28;20289;-81
2022/03/17 05:22:43;;;;;;;15.00;13.50;;;;;;;;;;5054840;28;20225;-80
2022/03/17 05:25:12;;;;;;;14.65;13.15;;;;;;;;;;5055707;28;20205;-81
2022/03/17 05:27:41;;;;;;;14.15;12.68;;;;;;;;;;5055697;28;20292;-81
2022/03/17 05:30:11;;;;;;;13.40;11.80;;;;;;;;;;5055025;28;20734;-81
2022/03/17 05:32:38;;;;;;;12.27;10.98;;;;;;;;;;5055547;28;20267;-81
2022/03/17 05:35:06;;;;;;;14.05;12.65;;;;;;;;;;5058543;28;20214;-80
2022/03/17 05:37:34;;;;;;;11.45;10.35;;;;;;;;;;5056202;28;20225;-81
2022/03/17 05:40:02;;;;;;;11.80;10.68;;;;;;;;;;5058829;28;20206;-81
2022/03/17 05:42:31;;;;;;;12.27;11.05;;;;;;;;;;5055439;28;20260;-80
2022/03/17 05:44:58;;;;;;;11.82;10.00;;;;;;;;;;5054482;28;20202;-80
2022/03/17 05:47:26;;;;;;;11.95;10.77;;;;;;;;;;5057826;28;20225;-81
2022/03/17 05:49:53;;;;;;;10.93;9.80;;;;;;;;;;5057270;28;20197;-82
2022/03/17 05:52:20;;;;;;;12.38;11.18;;;;;;;;;;5055677;28;20202;-80
2022/03/17 05:54:48;;;;;;;13.98;12.25;;;;;;;;;;5055349;28;20247;-81
2022/03/17 05:57:15;;;;;;;12.80;10.80;;;;;;;;;;5055868;28;20202;-81
2022/03/17 05:59:43;;;;;;;13.02;11.70;;;;;;;;;;5055771;28;20700;-80
2022/03/17 06:02:11;;;;;;;14.10;12.65;;;;;;;;;;5055674;28;20205;-81
2022/03/17 06:04:40;;;;;;;13.10;11.85;;;;;;;;;;5056233;28;20210;-81
2022/03/17 06:07:07;;;;;;;13.95;12.55;;;;;;;;;;5056057;28;20645;-81
2022/03/17 06:09:35;;;;;;;13.88;12.40;;;;;;;;;;5054642;28;20267;-81
2022/03/17 06:12:02;;;;;;;13.68;11.98;;;;;;;;;;5056115;28;20206;-81
2022/03/17 06:14:30;;;;;;;14.43;12.88;;;;;;;;;;5056007;28;20222;-81
2022/03/17 06:16:58;;;;;;;16.83;14.68;;;;;;;;;;5056170;28;20209;-80
2022/03/17 06:19:26;;;;;;;14.68;13.27;;;;;;;;;;5055668;28;20320;-81
2022/03/17 06:21:53;;;;;;;16.08;14.45;;;;;;;;;;5055707;28;20681;-80
2022/03/17 06:24:22;;;;;;;16.15;14.45;;;;;;;;;;5056990;28;20193;-81
2022/03/17 06:26:49;;;;;;;13.90;12.50;;;;;;;;;;5057274;28;20200;-80
2022/03/17 06:29:16;;;;;;;15.30;13.77;;;;;;;;;;5061158;28;20224;-81
2022/03/17 06:31:43;;;;;;;15.40;13.77;;;;;;;;;;5055515;28;20576;-81
2022/03/17 06:34:12;;;;;;;13.93;12.45;;;;;;;;;;5056575;28;20225;-81
2022/03/17 06:36:39;;;;;;;14.18;12.48;;;;;;;;;;5074146;28;20604;-80
2022/03/17 06:39:07;;;;;;;15.80;14.20;;;;;;;;;;5073550;28;20232;-81
2022/03/17 06:41:34;;;;;;;14.95;13.45;;;;;;;;;;5066750;28;20589;-81
2022/03/17 06:44:01;;;;;;;13.85;12.45;;;;;;;;;;5055144;28;20285;-79
2022/03/17 06:46:30;;;;;;;12.95;11.65;;;;;;;;;;5055055;28;20206;-81
2022/03/17 06:48:57;;;;;;;14.75;13.25;;;;;;;;;;5055237;28;20291;-81
2022/03/17 06:51:26;;;;;;;11.30;10.15;;;;;;;;;;5055600;28;20209;-80
2022/03/17 06:53:54;;;;;;;11.80;10.10;;;;;;;;;;5070168;28;20225;-80
2022/03/17 06:56:21;;;;;;;10.93;9.88;;;;;;;;;;5072953;28;20266;-80
2022/03/17 06:58:48;;;;;;;13.43;12.23;;;;;;;;;;5074130;28;20228;-80
2022/03/17 07:01:15;;;;;;;13.80;12.48;;;;;;;;;;5073210;28;20639;-80
2022/03/17 07:03:42;;;;;;;15.20;13.68;;;;;;;;;;5067283;28;20199;-80
2022/03/17 07:06:10;;;;;;;14.82;13.32;;;;;;;;;;5054543;28;20220;-80
2022/03/17 07:08:38;;;;;;;12.95;11.75;;;;;;;;;;5053838;28;20252;-80
2022/03/17 07:11:06;;;;;;;11.32;10.15;;;;;;;;;;5054314;28;20210;-80
2022/03/17 07:13:33;;;;;;;18.50;12.38;;;;;;;;;;5054191;28;20233;-80
2022/03/17 07:16:00;;;;;;;12.38;11.13;;;;;;;;;;5054734;28;20221;-80
2022/03/17 07:18:28;;;;;;;12.23;11.05;;;;;;;;;;5058348;28;20229;-81
2022/03/17 07:20:57;;;;;;;11.85;10.15;;;;;;;;;;5053850;28;20271;-80
2022/03/17 07:23:25;;;;;;;11.50;10.32;;;;;;;;;;5054421;28;20204;-80
2022/03/17 07:25:53;;;;;;;14.82;13.32;;;;;;;;;;5055275;28;20208;-80
2022/03/17 07:28:21;;;;;;;13.82;12.52;;;;;;;;;;5054725;28;20312;-81
2022/03/17 07:30:48;;;;;;;12.02;10.93;;;;;;;;;;5054277;28;20653;-80
2022/03/17 07:33:15;;;;;;;14.93;13.52;;;;;;;;;;5053908;28;20209;-81
2022/03/17 07:35:43;;;;;;;14.02;12.63;;;;;;;;;;5048854;28;20228;-80
2022/03/17 07:38:10;;;;;;;15.20;13.68;;;;;;;;;;5053897;28;20237;-81
2022/03/17 07:40:38;;;;;;;13.18;11.77;;;;;;;;;;5053847;28;20209;-80
2022/03/17 07:43:07;;;;;;;13.70;11.95;;;;;;;;;;5054436;28;20577;-81
2022/03/17 07:45:35;;;;;;;16.00;14.40;;;;;;;;;;5073118;28;20657;-80
2022/03/17 07:48:02;;;;;;;13.18;11.82;;;;;;;;;;5072435;28;20778;-80
2022/03/17 07:50:29;;;;;;;13.90;12.50;;;;;;;;;;5073358;28;20209;-81
2022/03/17 07:52:58;;;;;;;13.20;11.80;;;;;;;;;;5072880;28;20212;-80
2022/03/17 07:55:25;;;;;;;13.55;12.15;;;;;;;;;;5055716;28;20221;-80
2022/03/17 07:57:53;;;;;;;13.77;12.48;;;;;;;;;;5060634;28;20290;-80
2022/03/17 08:00:21;;;;;;;13.18;11.90;;;;;;;;;;5072574;28;20208;-81
2022/03/17 08:02:49;;;;;;;12.20;10.90;;;;;;;;;;5072751;28;20201;-80
2022/03/17 08:05:16;;;;;;;12.05;10.85;;;;;;;;;;5070637;28;20212;-81
2022/03/17 08:07:44;;;;;;;14.43;12.82;;;;;;;;;;5075069;28;20228;-80
2022/03/17 08:10:13;;;;;;;15.90;14.40;;;;;;;;;;5077311;28;20209;-80
2022/03/17 08:12:41;;;;;;;13.73;12.40;;;;;;;;;;5076970;28;20212;-80
2022/03/17 08:15:10;;;;;;;13.00;11.80;;;;;;;;;;5077074;28;20282;-80
2022/03/17 08:17:39;;;;;;;13.25;11.93;;;;;;;;;;5075708;28;20224;-79
2022/03/17 08:20:08;;;;;;;13.48;12.18;;;;;;;;;;5056746;28;20213;-79
2022/03/17 08:22:35;;;;;;;12.57;11.15;;;;;;;;;;5057688;28;20269;-80
2022/03/17 08:25:03;;;;;;;14.05;12.55;;;;;;;;;;5064972;28;20201;-80
2022/03/17 08:27:30;;;;;;;16.88;13.52;;;;;;;;;;5076102;28;20232;-80
2022/03/17 08:29:58;;;;;;;13.95;12.55;;;;;;;;;;5075716;28;20204;-80
2022/03/17 08:32:25;;;;;;;15.90;14.23;;;;;;;;;;5076610;28;20212;-81
2022/03/17 08:34:53;;;;;;;19.85;15.57;;;;;;;;;;5058794;28;20225;-81
2022/03/17 08:37:21;;;;;;;14.48;13.13;;;;;;;;;;5069943;28;20209;-81
2022/03/17 08:39:49;;;;;;;16.33;14.60;;;;;;;;;;5076931;28;20255;-81
2022/03/17 08:42:16;;;;;;;14.95;13.45;;;;;;;;;;5076386;28;20240;-81
2022/03/17 08:44:43;;;;;;;14.13;12.73;;;;;;;;;;5076573;28;20314;-81
2022/03/17 08:49:59;;;;;;;14.60;13.20;;;;;;;;;;5042083;28;20246;-81
2022/03/17 08:52:27;;;;;;;15.98;14.23;;;;;;;;;;5059480;28;20206;-80
2022/03/17 08:54:55;;;;;;;17.02;15.32;;;;;;;;;;5068337;28;20232;-81
2022/03/17 08:57:23;;;;;;;16.05;14.18;;;;;;;;;;5076596;28;20236;-80
2022/03/17 08:59:52;;;;;;;13.65;12.23;;;;;;;;;;5076684;28;20242;-80
2022/03/17 09:02:19;;;;;;;13.07;11.88;;;;;;;;;;5075819;28;20596;-80
2022/03/17 09:04:46;;;;;;;10.82;9.75;;;;;;;;;;5064475;28;20201;-81
2022/03/17 09:07:15;;;;;;;14.68;13.20;;;;;;;;;;5056502;28;20210;-81
2022/03/17 09:09:42;;;;;;;14.32;12.95;;;;;;;;;;5056128;28;20206;-81
2022/03/17 09:12:10;;;;;;;15.23;13.82;;;;;;;;;;5073624;28;20680;-81
2022/03/17 09:14:41;;;;;;;16.35;13.63;;;;;;;;;;5075439;28;20251;-81
2022/03/17 09:17:09;;;;;;;16.23;14.52;;;;;;;;;;5076168;28;20213;-81
2022/03/17 09:19:37;;;;;;;13.27;11.98;;;;;;;;;;5057444;28;20217;-82
2022/03/17 09:22:05;;;;;;;11.88;10.80;;;;;;;;;;5056454;28;20216;-81
2022/03/17 09:24:33;;;;;;;11.95;10.75;;;;;;;;;;5056595;28;20201;-81
2022/03/17 09:27:01;;;;;;;12.40;11.20;;;;;;;;;;5056414;28;20206;-81
2022/03/17 09:29:29;;;;;;;14.75;13.35;;;;;;;;;;5056168;28;20225;-81
2022/03/17 09:31:58;;;;;;;15.27;13.02;;;;;;;;;;5056112;28;20209;-81
2022/03/17 09:34:25;;;;;;;13.88;12.55;;;;;;;;;;5060452;28;20202;-80
2022/03/17 09:36:53;;;;;;;16.05;14.55;;;;;;;;;;5056437;28;20213;-81
2022/03/17 09:42:07;;;;;;;12.98;11.63;;;;;;;;;;5055465;28;20691;-82
2022/03/17 09:44:35;;;;;;;13.90;12.60;;;;;;;;;;5055619;28;20208;-81
2022/03/17 09:47:04;;;;;;;11.82;10.70;;;;;;;;;;5058121;28;20205;-80
2022/03/17 09:49:33;;;;;;;12.05;10.85;;;;;;;;;;5055582;28;20632;-80
2022/03/17 09:52:04;;;;;;;15.35;13.75;;;;;;;;;;5054932;28;20662;-81
2022/03/17 09:54:33;;;;;;;13.80;12.45;;;;;;;;;;5055024;28;20205;-81
2022/03/17 09:57:01;;;;;;;13.02;11.85;;;;;;;;;;5055511;28;20236;-81
2022/03/17 09:59:30;;;;;;;13.02;11.15;;;;;;;;;;5055149;28;20229;-81
2022/03/17 10:01:58;;;;;;;14.23;12.75;;;;;;;;;;5055261;28;20232;-81
2022/03/17 10:04:25;;;;;;;13.63;12.32;;;;;;;;;;5063926;28;20636;-80
2022/03/17 10:06:53;;;;;;;11.93;10.73;;;;;;;;;;5074509;28;20212;-81
2022/03/17 10:09:21;;;;;;;11.65;10.45;;;;;;;;;;5074244;28;20229;-81
2022/03/17 10:12:02;;;;;;;10.77;9.77;;;;;;;;;;5074378;28;20201;-80
2022/03/17 10:14:42;;;;;;;11.25;10.25;;;;;;;;;;5074012;28;20738;-81
2022/03/17 10:17:30;;;;;;;10.85;9.82;;;;;;;;;;5074476;28;20315;-81
2022/03/17 10:20:14;;;;;;;11.38;10.27;;;;;;;;;;5050413;28;20753;-81
2022/03/17 10:22:49;;;;;;;12.52;11.32;;;;;;;;;;5055152;28;20206;-81
2022/03/17 10:25:19;;;;;;;11.48;10.45;;;;;;;;;;5054691;28;20206;-79
2022/03/17 10:27:49;;;;;;;13.32;11.95;;;;;;;;;;5055001;28;20316;-81
2022/03/17 10:30:23;;;;;;;12.07;10.88;;;;;;;;;;5054343;28;20445;-81
2022/03/17 10:32:58;;;;;;;11.93;10.73;;;;;;;;;;5061110;28;20355;-81
2022/03/17 10:35:27;;;;;;;14.23;12.55;;;;;;;;;;5069911;28;20224;-81
2022/03/17 10:37:55;;;;;;;13.63;12.38;;;;;;;;;;5074073;28;20232;-81
2022/03/17 10:40:31;;;;;;;12.25;11.07;;;;;;;;;;5074873;28;20291;-80
2022/03/17 10:43:17;;;;;;;10.73;9.70;;;;;;;;;;5073260;28;20602;-82
2022/03/17 10:45:46;;;;;;;12.73;11.55;;;;;;;;;;5073790;28;20691;-82
2022/03/17 10:48:14;;;;;;;15.13;13.68;;;;;;;;;;5073870;28;20696;-82
2022/03/17 10:50:43;;;;;;;18.17;16.38;;;;;;;;;;5073418;28;20208;-82
2022/03/17 10:53:11;;;;;;;10.55;9.55;;;;;;;;;;5074172;28;20299;-81
2022/03/17 10:55:40;;;;;;;14.95;13.32;;;;;;;;;;5055148;28;20229;-82
2022/03/17 10:58:14;;;;;;;14.65;13.25;;;;;;;;;;5054832;28;20232;-82
2022/03/17 11:00:51;;;;;;;10.50;9.52;;;;;;;;;;5054867;28;20288;-81
2022/03/17 11:03:20;;;;;;;15.18;13.60;;;;;;;;;;5053703;28;20224;-81
2022/03/17 11:05:51;;;;;;;13.75;12.43;;;;;;;;;;5054272;28;20206;-82
2022/03/17 11:08:19;;;;;;;12.95;11.65;;;;;;;;;;5054291;28;20640;-82
2022/03/17 11:10:46;;;;;;;13.48;12.07;;;;;;;;;;5053543;28;20296;-81
2022/03/17 11:13:14;;;;;;;14.82;13.27;;;;;;;;;;5053260;28;20201;-81
2022/03/17 11:15:45;;;;;;;12.35;11.15;;;;;;;;;;5053919;28;20229;-81
2022/03/17 11:18:16;;;;;;;11.23;10.05;;;;;;;;;;5055453;28;20697;-82
2022/03/17 11:20:43;;;;;;;12.00;10.80;;;;;;;;;;5062945;28;20300;-82
2022/03/17 11:23:19;;;;;;;15.13;13.63;;;;;;;;;;5073908;28;20235;-82
2022/03/17 11:25:52;;;;;;;13.20;11.95;;;;;;;;;;5051524;28;20208;-81
2022/03/17 11:28:32;;;;;;;13.52;12.13;;;;;;;;;;5055499;28;20291;-82
2022/03/17 11:31:01;;;;;;;13.38;11.70;;;;;;;;;;5054309;28;20577;-82
2022/03/17 11:33:33;;;;;;;15.30;13.73;;;;;;;;;;5054500;28;20202;-81
2022/03/17 11:36:03;;;;;;;13.25;11.95;;;;;;;;;;5074623;28;20221;-80
2022/03/17 11:38:32;;;;;;;10.52;9.57;;;;;;;;;;5072160;28;20229;-80
2022/03/17 11:41:13;;;;;;;12.50;11.20;;;;;;;;;;5046957;28;20202;-81
2022/03/17 11:43:59;;;;;;;13.43;12.13;;;;;;;;;;5052936;28;20215;-81
2022/03/17 11:46:40;;;;;;;10.23;9.23;;;;;;;;;;5053509;28;20235;-81
2022/03/17 11:49:30;;;;;;;9.77;8.85;;;;;;;;;;5053387;28;20232;-80
2022/03/17 11:52:00;;;;;;;9.88;8.63;;;;;;;;;;5053169;28;20300;-79
2022/03/17 11:54:29;;;;;;;16.40;8.18;;;;;;;;;;5055768;28;20674;-80
2022/03/17 11:56:59;;;;;;;8.48;7.68;;;;;;;;;;5072177;28;20236;-81
2022/03/17 11:59:51;;;;;;;9.05;8.20;;;;;;;;;;5084385;28;20224;-80
2022/03/17 12:02:22;;;;;;;8.07;6.80;;;;;;;;;;5090605;28;20812;-84
2022/03/17 12:04:52;;;;;;;7.22;6.53;;;;;;;;;;5067302;28;20210;-83
2022/03/17 12:07:21;;;;;;;6.57;5.95;;;;;;;;;;5094679;28;20205;-82
2022/03/17 12:09:49;;;;;;;5.28;4.78;;;;;;;;;;5086500;28;20201;-80
2022/03/17 12:12:23;;;;;;;7.45;6.75;;;;;;;;;;5084249;28;20201;-80
2022/03/17 12:14:53;;;;;;;6.60;6.00;;;;;;;;;;5080555;28;20211;-80
2022/03/17 12:17:22;;;;;;;6.47;5.88;;;;;;;;;;5075020;28;20300;-80
2022/03/17 12:20:08;;;;;;;8.98;6.55;;;;;;;;;;5056009;28;20221;-80
2022/03/17 12:22:39;;;;;;;7.25;6.60;;;;;;;;;;5054601;28;20666;-79
2022/03/17 12:25:16;;;;;;;7.15;5.88;;;;;;;;;;5055046;28;20201;-80
2022/03/17 12:27:45;;;;;;;5.85;5.35;;;;;;;;;;5053935;28;20248;-79
2022/03/17 12:30:14;;;;;;;7.10;5.70;;;;;;;;;;5054833;28;20209;-80
2022/03/17 12:32:45;;;;;;;6.47;5.88;;;;;;;;;;5074983;28;20685;-79
2022/03/17 12:35:14;;;;;;;6.55;5.95;;;;;;;;;;5069819;28;20205;-79
2022/03/17 12:37:43;;;;;;;7.90;6.90;;;;;;;;;;5085378;28;20620;-80
2022/03/17 12:40:15;;;;;;;8.38;5.70;;;;;;;;;;5078788;28;20205;-80
2022/03/17 12:42:44;;;;;;;6.10;5.60;;;;;;;;;;5065473;28;20240;-80
2022/03/17 12:45:14;;;;;;;6.88;6.25;;;;;;;;;;5069001;28;20255;-79
2022/03/17 12:47:43;;;;;;;6.53;5.93;;;;;;;;;;5063030;28;20309;-80
2022/03/17 12:50:15;;;;;;;6.55;5.53;;;;;;;;;;5055122;28;20209;-81
2022/03/17 12:52:45;;;;;;;5.68;5.18;;;;;;;;;;5053396;28;20264;-80
2022/03/17 12:55:15;;;;;;;5.60;5.20;;;;;;;;;;5071899;28;20208;-80
2022/03/17 12:57:43;;;;;;;5.78;4.93;;;;;;;;;;5074149;28;20225;-80
2022/03/17 13:00:14;;;;;;;6.00;5.50;;;;;;;;;;5057000;28;20225;-80
2022/03/17 13:02:47;;;;;;;6.55;4.82;;;;;;;;;;5056092;28;20267;-80
2022/03/17 13:07:59;;;;;;;6.25;5.60;;;;;;;;;;5034954;28;20311;-82
2022/03/17 13:10:28;;;;;;;5.88;4.70;;;;;;;;;;5075683;28;20205;-80
2022/03/17 13:15:44;;;;;;;8.98;5.95;;;;;;;;;;5076029;28;20207;-80
2022/03/17 13:18:15;;;;;;;5.75;5.20;;;;;;;;;;5074722;28;20322;-80
2022/03/17 13:20:44;;;;;;;5.60;5.03;;;;;;;;;;5060470;28;20202;-80
2022/03/17 13:23:12;;;;;;;5.35;4.85;;;;;;;;;;5055975;28;20213;-80
2022/03/17 13:25:41;;;;;;;7.53;4.68;;;;;;;;;;5056758;28;20644;-80
2022/03/17 13:28:12;;;;;;;7.22;5.20;;;;;;;;;;5052381;28;20277;-80
2022/03/17 13:30:47;;;;;;;6.55;5.22;;;;;;;;;;5054173;28;20210;-80
2022/03/17 13:33:16;;;;;;;5.97;5.38;;;;;;;;;;5056662;28;20212;-80
2022/03/17 13:35:48;;;;;;;6.03;5.40;;;;;;;;;;5057002;28;20681;-82
2022/03/17 13:38:18;;;;;;;6.85;5.22;;;;;;;;;;5056215;28;20229;-80
2022/03/17 13:40:48;;;;;;;6.10;5.20;;;;;;;;;;5056545;28;20646;-80
2022/03/17 13:43:17;;;;;;;6.30;5.32;;;;;;;;;;5055754;28;20212;-80
2022/03/17 13:45:48;;;;;;;6.03;5.53;;;;;;;;;;5056309;28;20214;-80
2022/03/17 13:48:17;;;;;;;5.72;5.22;;;;;;;;;;5056462;28;20323;-80
2022/03/17 13:50:55;;;;;;;5.88;5.28;;;;;;;;;;5056092;28;20258;-80
2022/03/17 13:53:28;;;;;;;4.75;4.35;;;;;;;;;;5055388;28;20209;-80
2022/03/17 13:55:58;;;;;;;7.45;5.35;;;;;;;;;;5056163;28;20236;-79
2022/03/17 13:58:28;;;;;;;5.10;4.60;;;;;;;;;;5055218;28;20269;-79
2022/03/17 14:00:57;;;;;;;5.25;4.65;;;;;;;;;;5055730;28;20682;-80
2022/03/17 14:03:32;;;;;;;5.75;4.45;;;;;;;;;;5056228;28;20288;-79
2022/03/17 14:06:13;;;;;;;5.93;4.82;;;;;;;;;;5071960;28;20675;-80
2022/03/17 14:08:48;;;;;;;5.60;5.03;;;;;;;;;;5074677;28;20685;-79
2022/03/17 14:11:17;;;;;;;5.07;4.68;;;;;;;;;;5074767;28;20211;-80
2022/03/17 14:13:47;;;;;;;4.72;4.25;;;;;;;;;;5075979;28;20205;-79
2022/03/17 14:16:17;;;;;;;5.32;4.85;;;;;;;;;;5049808;28;20658;-80
2022/03/17 14:18:46;;;;;;;5.03;4.53;;;;;;;;;;5048643;28;20240;-80
2022/03/17 14:21:15;;;;;;;4.90;3.67;;;;;;;;;;5055831;28;20205;-80
2022/03/17 14:26:33;;;;;;;5.05;4.25;;;;;;;;;;5074164;28;20215;-79
2022/03/17 14:29:01;;;;;;;4.65;4.25;;;;;;;;;;5073668;28;20227;-80
2022/03/17 14:31:30;;;;;;;5.50;4.32;;;;;;;;;;5074664;28;20208;-80
2022/03/17 14:33:58;;;;;;;4.35;3.97;;;;;;;;;;5072253;28;20199;-80
2022/03/17 14:36:30;;;;;;;4.82;3.80;;;;;;;;;;5073751;28;20201;-79
2022/03/17 14:38:58;;;;;;;4.15;3.60;;;;;;;;;;5074085;28;20232;-81
2022/03/17 14:41:27;;;;;;;5.38;4.20;;;;;;;;;;5075545;28;20248;-81
2022/03/17 14:43:57;;;;;;;3.50;3.20;;;;;;;;;;5074210;28;20296;-78
2022/03/17 14:46:25;;;;;;;5.63;2.70;;;;;;;;;;5074512;28;20237;-81
2022/03/17 14:48:53;;;;;;;3.85;2.92;;;;;;;;;;5074431;28;20232;-85
2022/03/17 14:51:21;;;;;;;3.55;3.25;;;;;;;;;;5076033;28;20665;-80
2022/03/17 14:53:50;;;;;;;2.92;2.33;;;;;;;;;;5070123;28;20236;-79
2022/03/17 14:56:20;;;;;;;2.90;2.30;;;;;;;;;;5058508;28;20210;-84
2022/03/17 14:58:49;;;;;;;3.22;2.58;;;;;;;;;;5057664;28;20291;-83
2022/03/17 15:01:18;;;;;;;3.72;2.35;;;;;;;;;;5056783;28;20423;-81